Kansas City, Missouri
Traffic Map
Current Weather Conditions
Kansas City, Missouri
Clear
Clear
12°
Feels Like: 12°
Wind Chill: 12° Ceiling: Unl
Heat Index: 12° Visibility: 10mi
Dew Point: 10° Wind: 3mph
Humidity: 89% Direction: 210° (SSW)
Pressure: 29.99in Gusts: 0mph
Raw Report DataKMKC 201054Z 21003KT 10SM CLR 12/10 A2999 RMK AO2 SLP152 T01170100
Traffic Incident Summary
Active as of:
Severity:
Category:
InformationThere was an issue retrieving the traffic information for this location. Please try a different location or try again shortly.
Advertisements
Track Severe Weather on mobile